sensor_id;sensor_type;location;lat;lon;timestamp;pressure;altitude;pressure_sealevel;temperature;humidity
48027;BME280;50714;49.208;5.364;2023-06-22T00:04:48;99407.28;;;21.89;93.32
48027;BME280;50714;49.208;5.364;2023-06-22T00:14:49;99436.97;;;21.82;94.43
48027;BME280;50714;49.208;5.364;2023-06-22T00:24:49;99464.44;;;21.92;95.07
48027;BME280;50714;49.208;5.364;2023-06-22T00:34:49;99448.75;;;21.98;93.35
48027;BME280;50714;49.208;5.364;2023-06-22T00:44:50;99456.22;;;21.77;93.16
48027;BME280;50714;49.208;5.364;2023-06-22T00:54:51;99454.06;;;21.59;93.74
48027;BME280;50714;49.208;5.364;2023-06-22T01:04:52;99440.59;;;21.62;94.20
48027;BME280;50714;49.208;5.364;2023-06-22T01:15:02;99423.56;;;21.60;94.76
48027;BME280;50714;49.208;5.364;2023-06-22T01:25:32;99444.47;;;21.41;96.52
48027;BME280;50714;49.208;5.364;2023-06-22T01:35:33;99428.78;;;21.52;95.37
48027;BME280;50714;49.208;5.364;2023-06-22T01:45:34;99408.75;;;21.51;95.21
48027;BME280;50714;49.208;5.364;2023-06-22T01:55:34;99396.97;;;21.46;95.38
48027;BME280;50714;49.208;5.364;2023-06-22T02:05:39;99394.78;;;21.37;95.89
48027;BME280;50714;49.208;5.364;2023-06-22T02:15:43;99386.25;;;21.34;95.83
48027;BME280;50714;49.208;5.364;2023-06-22T02:25:44;99379.94;;;21.28;95.94
48027;BME280;50714;49.208;5.364;2023-06-22T02:35:44;99385.16;;;21.20;95.99
48027;BME280;50714;49.208;5.364;2023-06-22T02:45:47;99381.31;;;21.10;96.02
48027;BME280;50714;49.208;5.364;2023-06-22T02:55:48;99384.59;;;21.07;96.74
48027;BME280;50714;49.208;5.364;2023-06-22T03:05:48;99373.34;;;21.04;96.12
48027;BME280;50714;49.208;5.364;2023-06-22T03:15:48;99357.97;;;21.03;96.72
48027;BME280;50714;49.208;5.364;2023-06-22T03:25:49;99344.84;;;21.00;96.87
48027;BME280;50714;49.208;5.364;2023-06-22T03:35:49;99337.69;;;20.94;96.90
48027;BME280;50714;49.208;5.364;2023-06-22T03:45:53;99317.38;;;20.85;96.95
48027;BME280;50714;49.208;5.364;2023-06-22T03:55:54;99326.16;;;20.82;97.13
48027;BME280;50714;49.208;5.364;2023-06-22T04:05:54;99313.28;;;20.77;97.19
48027;BME280;50714;49.208;5.364;2023-06-22T04:15:54;99343.47;;;20.77;97.70
48027;BME280;50714;49.208;5.364;2023-06-22T04:25:55;99348.09;;;20.82;97.72
48027;BME280;50714;49.208;5.364;2023-06-22T04:35:56;99358.53;;;20.85;98.36
48027;BME280;50714;49.208;5.364;2023-06-22T04:45:57;99368.41;;;20.91;98.84
48027;BME280;50714;49.208;5.364;2023-06-22T04:56:03;99386.53;;;21.02;99.53
48027;BME280;50714;49.208;5.364;2023-06-22T05:06:04;99365.13;;;21.09;99.58
48027;BME280;50714;49.208;5.364;2023-06-22T05:16:04;99319.00;;;21.16;100.00
48027;BME280;50714;49.208;5.364;2023-06-22T05:26:06;99285.28;;;21.26;99.77
48027;BME280;50714;49.208;5.364;2023-06-22T05:36:10;99258.06;;;21.34;99.58
48027;BME280;50714;49.208;5.364;2023-06-22T05:46:10;99232.22;;;21.46;99.13
48027;BME280;50714;49.208;5.364;2023-06-22T05:56:10;99218.97;;;21.63;100.00
48027;BME280;50714;49.208;5.364;2023-06-22T06:06:11;99201.72;;;22.01;99.83
48027;BME280;50714;49.208;5.364;2023-06-22T06:16:12;99158.78;;;22.10;98.13
48027;BME280;50714;49.208;5.364;2023-06-22T06:26:12;99164.28;;;22.10;97.40
48027;BME280;50714;49.208;5.364;2023-06-22T06:36:13;99141.19;;;22.11;97.72
48027;BME280;50714;49.208;5.364;2023-06-22T06:46:13;99119.41;;;22.20;97.48
48027;BME280;50714;49.208;5.364;2023-06-22T06:56:14;99104.94;;;22.09;96.60
48027;BME280;50714;49.208;5.364;2023-06-22T07:06:14;99094.25;;;21.98;97.64
48027;BME280;50714;49.208;5.364;2023-06-22T07:16:14;99073.25;;;21.83;98.82
48027;BME280;50714;49.208;5.364;2023-06-22T07:26:14;99197.16;;;21.76;100.00
48027;BME280;50714;49.208;5.364;2023-06-22T07:36:17;99341.16;;;21.70;100.00
48027;BME280;50714;49.208;5.364;2023-06-22T07:46:18;99428.22;;;21.60;100.00
48027;BME280;50714;49.208;5.364;2023-06-22T07:56:18;99331.56;;;21.53;100.00
48027;BME280;50714;49.208;5.364;2023-06-22T08:06:20;99314.00;;;21.54;100.00
48027;BME280;50714;49.208;5.364;2023-06-22T08:16:21;99261.25;;;21.62;100.00
48027;BME280;50714;49.208;5.364;2023-06-22T08:26:22;99231.25;;;21.75;100.00
48027;BME280;50714;49.208;5.364;2023-06-22T08:36:23;99203.56;;;22.16;100.00
48027;BME280;50714;49.208;5.364;2023-06-22T08:46:23;99186.69;;;22.57;100.00
48027;BME280;50714;49.208;5.364;2023-06-22T08:56:30;99168.44;;;22.95;100.00
48027;BME280;50714;49.208;5.364;2023-06-22T09:06:31;99150.75;;;23.86;100.00
48027;BME280;50714;49.208;5.364;2023-06-22T09:16:32;99130.84;;;26.67;96.55
48027;BME280;50714;49.208;5.364;2023-06-22T09:26:32;99127.63;;;27.78;84.64
48027;BME280;50714;49.208;5.364;2023-06-22T09:36:32;99120.75;;;28.92;78.40
48027;BME280;50714;49.208;5.364;2023-06-22T09:46:33;99106.84;;;28.92;73.34
48027;BME280;50714;49.208;5.364;2023-06-22T09:56:33;99115.22;;;27.84;76.49
48027;BME280;50714;49.208;5.364;2023-06-22T10:06:33;99119.13;;;28.27;72.71
48027;BME280;50714;49.208;5.364;2023-06-22T10:16:36;99109.50;;;27.72;72.58
48027;BME280;50714;49.208;5.364;2023-06-22T10:26:36;99088.88;;;27.30;75.23
48027;BME280;50714;49.208;5.364;2023-06-22T10:36:38;99096.56;;;27.50;73.69
48027;BME280;50714;49.208;5.364;2023-06-22T10:46:38;99102.09;;;27.33;73.58
48027;BME280;50714;49.208;5.364;2023-06-22T10:56:40;99084.84;;;27.54;72.49
48027;BME280;50714;49.208;5.364;2023-06-22T11:06:40;99093.16;;;27.36;71.87
48027;BME280;50714;49.208;5.364;2023-06-22T11:16:41;99085.22;;;27.87;70.11
48027;BME280;50714;49.208;5.364;2023-06-22T11:26:41;99070.66;;;28.71;66.99
48027;BME280;50714;49.208;5.364;2023-06-22T11:36:41;99045.03;;;27.93;67.84
48027;BME280;50714;49.208;5.364;2023-06-22T11:46:42;99025.31;;;27.51;71.29
48027;BME280;50714;49.208;5.364;2023-06-22T11:56:42;99017.88;;;27.60;68.85
48027;BME280;50714;49.208;5.364;2023-06-22T12:06:42;98996.88;;;26.85;71.77
48027;BME280;50714;49.208;5.364;2023-06-22T12:16:43;98996.63;;;27.04;73.64
48027;BME280;50714;49.208;5.364;2023-06-22T12:26:44;98941.06;;;27.61;69.03
48027;BME280;50714;49.208;5.364;2023-06-22T12:36:44;98951.16;;;27.31;66.00
48027;BME280;50714;49.208;5.364;2023-06-22T12:46:44;99010.16;;;26.57;70.73
48027;BME280;50714;49.208;5.364;2023-06-22T12:56:45;98989.00;;;26.61;71.54
48027;BME280;50714;49.208;5.364;2023-06-22T13:06:45;99012.78;;;26.71;68.53
48027;BME280;50714;49.208;5.364;2023-06-22T13:16:49;99007.56;;;26.61;68.90
48027;BME280;50714;49.208;5.364;2023-06-22T13:26:49;99048.25;;;26.60;68.14
48027;BME280;50714;49.208;5.364;2023-06-22T13:36:50;99068.66;;;26.33;68.09
48027;BME280;50714;49.208;5.364;2023-06-22T13:46:50;99076.97;;;25.66;68.50
48027;BME280;50714;49.208;5.364;2023-06-22T13:56:50;99091.16;;;25.60;69.46
48027;BME280;50714;49.208;5.364;2023-06-22T14:06:51;99109.38;;;25.61;70.15
48027;BME280;50714;49.208;5.364;2023-06-22T14:16:51;99119.53;;;25.52;69.84
48027;BME280;50714;49.208;5.364;2023-06-22T14:26:51;99144.66;;;25.14;69.74
48027;BME280;50714;49.208;5.364;2023-06-22T14:36:52;99145.22;;;24.83;70.33
48027;BME280;50714;49.208;5.364;2023-06-22T14:46:52;99155.44;;;24.69;70.01
48027;BME280;50714;49.208;5.364;2023-06-22T14:56:53;99196.25;;;24.72;69.76
48027;BME280;50714;49.208;5.364;2023-06-22T15:06:53;99209.22;;;24.39;69.33
48027;BME280;50714;49.208;5.364;2023-06-22T15:16:54;99229.28;;;24.26;69.33
48027;BME280;50714;49.208;5.364;2023-06-22T15:26:54;99248.63;;;24.21;68.82
48027;BME280;50714;49.208;5.364;2023-06-22T15:36:55;99268.00;;;24.16;69.72
48027;BME280;50714;49.208;5.364;2023-06-22T15:46:55;99278.81;;;24.12;70.54
48027;BME280;50714;49.208;5.364;2023-06-22T15:56:55;99288.28;;;24.06;69.92
48027;BME280;50714;49.208;5.364;2023-06-22T16:06:56;99310.41;;;24.01;70.81
48027;BME280;50714;49.208;5.364;2023-06-22T16:16:56;99320.41;;;23.73;71.30
48027;BME280;50714;49.208;5.364;2023-06-22T16:26:57;99317.25;;;23.61;72.66
48027;BME280;50714;49.208;5.364;2023-06-22T16:36:57;99316.50;;;23.51;72.39
48027;BME280;50714;49.208;5.364;2023-06-22T16:46:58;99328.00;;;23.34;73.83
48027;BME280;50714;49.208;5.364;2023-06-22T16:56:59;99360.00;;;23.25;74.23
48027;BME280;50714;49.208;5.364;2023-06-22T17:07:07;99357.97;;;23.06;75.64
48027;BME280;50714;49.208;5.364;2023-06-22T17:17:17;99356.75;;;22.89;76.58
48027;BME280;50714;49.208;5.364;2023-06-22T17:27:26;99360.75;;;22.67;76.92
48027;BME280;50714;49.208;5.364;2023-06-22T17:37:32;99375.63;;;22.61;77.78
48027;BME280;50714;49.208;5.364;2023-06-22T17:47:33;99389.22;;;22.42;77.57
48027;BME280;50714;49.208;5.364;2023-06-22T17:57:37;99403.59;;;22.24;78.71
48027;BME280;50714;49.208;5.364;2023-06-22T18:07:38;99420.44;;;22.13;78.29
48027;BME280;50714;49.208;5.364;2023-06-22T18:17:41;99445.75;;;22.04;78.42
48027;BME280;50714;49.208;5.364;2023-06-22T18:27:42;99468.84;;;21.88;78.62
48027;BME280;50714;49.208;5.364;2023-06-22T18:37:44;99484.22;;;21.74;79.50
48027;BME280;50714;49.208;5.364;2023-06-22T18:47:55;99504.84;;;21.56;81.87
48027;BME280;50714;49.208;5.364;2023-06-22T18:58:16;99527.09;;;21.34;82.77
48027;BME280;50714;49.208;5.364;2023-06-22T19:08:16;99561.94;;;21.24;81.96
48027;BME280;50714;49.208;5.364;2023-06-22T19:18:18;99590.97;;;21.15;82.59
48027;BME280;50714;49.208;5.364;2023-06-22T19:28:19;99620.06;;;21.10;83.15
48027;BME280;50714;49.208;5.364;2023-06-22T19:38:19;99637.06;;;21.07;82.95
48027;BME280;50714;49.208;5.364;2023-06-22T19:48:24;99659.28;;;21.01;82.79
48027;BME280;50714;49.208;5.364;2023-06-22T19:58:25;99678.72;;;20.94;82.70
48027;BME280;50714;49.208;5.364;2023-06-22T20:08:25;99677.28;;;20.87;82.90
48027;BME280;50714;49.208;5.364;2023-06-22T20:18:26;99690.16;;;20.81;83.41
48027;BME280;50714;49.208;5.364;2023-06-22T20:28:27;99688.50;;;20.75;83.58
48027;BME280;50714;49.208;5.364;2023-06-22T20:38:27;99682.38;;;20.63;84.22
48027;BME280;50714;49.208;5.364;2023-06-22T20:48:28;99677.72;;;20.63;85.13
48027;BME280;50714;49.208;5.364;2023-06-22T20:58:29;99706.75;;;20.59;85.36
48027;BME280;50714;49.208;5.364;2023-06-22T21:08:29;99704.25;;;20.53;85.36
48027;BME280;50714;49.208;5.364;2023-06-22T21:18:30;99702.25;;;20.43;85.79
48027;BME280;50714;49.208;5.364;2023-06-22T21:28:31;99710.16;;;20.39;86.01
48027;BME280;50714;49.208;5.364;2023-06-22T21:38:32;99729.00;;;20.36;86.33
48027;BME280;50714;49.208;5.364;2023-06-22T21:48:32;99739.66;;;20.32;86.25
48027;BME280;50714;49.208;5.364;2023-06-22T21:58:33;99747.81;;;20.22;85.89
48027;BME280;50714;49.208;5.364;2023-06-22T22:08:33;99753.16;;;20.07;86.16
48027;BME280;50714;49.208;5.364;2023-06-22T22:18:33;99760.13;;;19.93;86.21
48027;BME280;50714;49.208;5.364;2023-06-22T22:28:34;99761.38;;;19.80;86.17
48027;BME280;50714;49.208;5.364;2023-06-22T22:38:34;99755.72;;;19.65;87.00
48027;BME280;50714;49.208;5.364;2023-06-22T22:48:35;99773.84;;;19.49;87.16
48027;BME280;50714;49.208;5.364;2023-06-22T22:58:36;99787.47;;;19.44;88.12
48027;BME280;50714;49.208;5.364;2023-06-22T23:08:37;99806.94;;;19.48;89.23
48027;BME280;50714;49.208;5.364;2023-06-22T23:18:37;99826.53;;;19.56;89.13
48027;BME280;50714;49.208;5.364;2023-06-22T23:28:38;99843.22;;;19.55;89.37
48027;BME280;50714;49.208;5.364;2023-06-22T23:38:39;99846.94;;;19.49;88.50
48027;BME280;50714;49.208;5.364;2023-06-22T23:48:39;99865.69;;;19.40;89.05
48027;BME280;50714;49.208;5.364;2023-06-22T23:58:39;99880.41;;;19.34;88.48
